createdAt,value
2022-10-11T00:00:44.429Z,98235.38
2022-10-11T00:03:17.358Z,98233.94
2022-10-11T00:05:50.862Z,98237.00
2022-10-11T00:08:21.047Z,98246.50
2022-10-11T00:11:01.637Z,98250.44
2022-10-11T00:13:32.666Z,98244.97
2022-10-11T00:16:03.696Z,98253.13
2022-10-11T00:18:36.583Z,98256.00
2022-10-11T00:21:12.102Z,98254.84
2022-10-11T00:23:43.585Z,98260.03
2022-10-11T00:26:15.220Z,98270.19
2022-10-11T00:28:45.789Z,98269.81
2022-10-11T00:31:18.586Z,98271.34
2022-10-11T00:33:52.563Z,98280.25
2022-10-11T00:36:22.966Z,98280.25
2022-10-11T00:38:53.653Z,98278.53
2022-10-11T00:41:26.030Z,98284.69
2022-10-11T00:44:21.690Z,98288.53
2022-10-11T00:46:58.100Z,98288.63
2022-10-11T00:49:39.852Z,98289.97
2022-10-11T00:52:18.401Z,98298.41
2022-10-11T00:54:50.579Z,98299.94
2022-10-11T00:57:24.539Z,98291.13
2022-10-11T00:59:58.207Z,98300.78
2022-10-11T01:02:30.436Z,98307.13
2022-10-11T01:05:27.562Z,98305.13
2022-10-11T01:07:57.095Z,98305.59
2022-10-11T01:10:30.240Z,98305.88
2022-10-11T01:13:12.075Z,98308.94
2022-10-11T01:15:49.626Z,98310.78
2022-10-11T01:18:29.166Z,98315.88
2022-10-11T01:21:10.083Z,98312.88
2022-10-11T01:24:19.188Z,98311.13
2022-10-11T01:27:32.338Z,98313.91
2022-10-11T01:30:20.897Z,98318.16
2022-10-11T01:33:01.860Z,98330.06
2022-10-11T01:35:34.778Z,98330.84
2022-10-11T01:38:11.546Z,98331.38
2022-10-11T01:40:51.857Z,98336.78
2022-10-11T01:43:23.896Z,98338.31
2022-10-11T01:45:59.674Z,98340.91
2022-10-11T01:48:30.093Z,98343.28
2022-10-11T01:51:05.412Z,98334.44
2022-10-11T01:53:54.502Z,98331.16
2022-10-11T01:56:41.382Z,98331.94
2022-10-11T01:59:32.406Z,98341.53
2022-10-11T02:02:16.583Z,98343.66
2022-10-11T02:04:51.897Z,98335.47
2022-10-11T02:07:31.221Z,98335.19
2022-10-11T02:10:10.970Z,98342.81
2022-10-11T02:12:46.850Z,98348.72
2022-10-11T02:15:19.176Z,98345.22
2022-10-11T02:17:59.186Z,98348.97
2022-10-11T02:20:33.586Z,98350.97
2022-10-11T02:23:09.621Z,98353.88
2022-10-11T02:25:40.583Z,98354.34
2022-10-11T02:28:13.726Z,98359.72
2022-10-11T02:30:45.817Z,98367.59
2022-10-11T02:33:25.647Z,98361.34
2022-10-11T02:36:06.981Z,98367.97
2022-10-11T02:38:45.490Z,98371.53
2022-10-11T02:41:26.609Z,98374.78
2022-10-11T02:44:03.136Z,98383.16
2022-10-11T02:46:34.694Z,98375.56
2022-10-11T02:49:07.876Z,98375.81
2022-10-11T02:51:39.474Z,98384.41
2022-10-11T02:54:09.793Z,98386.13
2022-10-11T02:56:39.971Z,98389.59
2022-10-11T02:59:10.219Z,98394.41
2022-10-11T03:01:40.765Z,98399.28
2022-10-11T03:04:13.649Z,98395.75
2022-10-11T03:06:43.887Z,98401.03
2022-10-11T03:09:15.821Z,98401.25
2022-10-11T03:11:46.012Z,98413.81
2022-10-11T03:14:16.225Z,98417.84
2022-10-11T03:16:46.347Z,98417.66
2022-10-11T03:19:19.506Z,98425.81
2022-10-11T03:21:49.893Z,98430.16
2022-10-11T03:24:20.399Z,98427.91
2022-10-11T03:26:50.904Z,98426.41
2022-10-11T03:29:21.266Z,98430.22
2022-10-11T03:31:51.524Z,98434.00
2022-10-11T03:34:24.394Z,98429.97
2022-10-11T03:36:54.597Z,98435.53
2022-10-11T03:39:24.750Z,98435.53
2022-10-11T03:41:54.851Z,98436.31
2022-10-11T03:44:24.940Z,98430.16
2022-10-11T03:46:55.022Z,98434.00
2022-10-11T03:49:28.045Z,98442.06
2022-10-11T03:51:58.304Z,98441.78
2022-10-11T03:54:29.171Z,98449.19
2022-10-11T03:56:59.118Z,98440.72
2022-10-11T03:59:29.401Z,98451.56
2022-10-11T04:01:59.822Z,98459.94
2022-10-11T04:04:32.871Z,98466.28
2022-10-11T04:07:03.093Z,98467.63
2022-10-11T04:09:33.780Z,98474.13
2022-10-11T04:12:03.997Z,98478.75
2022-10-11T04:14:34.176Z,98478.75
2022-10-11T04:17:04.311Z,98488.50
2022-10-11T04:19:37.404Z,98495.72
2022-10-11T04:22:10.762Z,98495.09
2022-10-11T04:24:41.161Z,98496.34
2022-10-11T04:27:13.910Z,98496.91
2022-10-11T04:29:44.254Z,98496.59
2022-10-11T04:32:14.498Z,98498.81
2022-10-11T04:34:47.331Z,98500.41
2022-10-11T04:37:17.767Z,98500.91
2022-10-11T04:39:48.619Z,98492.59
2022-10-11T04:42:20.281Z,98496.63
2022-10-11T04:44:50.770Z,98502.28
2022-10-11T04:47:21.048Z,98513.22
2022-10-11T04:49:53.978Z,98511.41
2022-10-11T04:52:26.022Z,98516.38
2022-10-11T04:54:56.378Z,98510.31
2022-10-11T04:57:26.456Z,98519.16
2022-10-11T04:59:56.609Z,98528.25
2022-10-11T05:02:26.815Z,98531.03
2022-10-11T05:04:59.871Z,98530.47
2022-10-11T05:07:30.124Z,98537.88
2022-10-11T05:10:00.684Z,98534.78
2022-10-11T05:12:31.058Z,98551.03
2022-10-11T05:15:01.385Z,98537.56
2022-10-11T05:17:31.748Z,98550.91
2022-10-11T05:20:04.869Z,98549.63
2022-10-11T05:22:35.227Z,98559.25
2022-10-11T05:25:05.469Z,98554.16
2022-10-11T05:27:35.811Z,98557.72
2022-10-11T05:30:07.584Z,98557.88
2022-10-11T05:32:37.846Z,98562.69
2022-10-11T05:35:12.223Z,98571.78
2022-10-11T05:37:42.541Z,98567.19
2022-10-11T05:40:14.399Z,98569.84
2022-10-11T05:42:44.595Z,98572.63
2022-10-11T05:45:14.713Z,98572.78
2022-10-11T05:47:44.842Z,98580.25
2022-10-11T05:50:20.803Z,98588.81
2022-10-11T05:52:54.471Z,98590.22
2022-10-11T05:55:24.861Z,98599.31
2022-10-11T05:57:56.641Z,98597.03
2022-10-11T06:00:28.060Z,98608.44
2022-10-11T06:02:58.356Z,98599.81
2022-10-11T06:05:31.267Z,98610.31
2022-10-11T06:08:01.562Z,98612.03
2022-10-11T06:10:31.899Z,98619.91
2022-10-11T06:13:02.213Z,98624.22
2022-10-11T06:15:32.688Z,98616.00
2022-10-11T06:18:03.359Z,98621.09
2022-10-11T06:20:36.372Z,98629.44
2022-10-11T06:23:06.719Z,98638.06
2022-10-11T06:25:36.930Z,98640.50
2022-10-11T06:28:07.242Z,98641.28
2022-10-11T06:30:37.565Z,98648.56
2022-10-11T06:33:07.950Z,98645.81
2022-10-11T06:35:40.846Z,98644.59
2022-10-11T06:38:11.084Z,98657.28
2022-10-11T06:40:41.458Z,98661.00
2022-10-11T06:43:11.670Z,98658.81
2022-10-11T06:45:41.847Z,98660.63
2022-10-11T06:48:12.091Z,98657.66
2022-10-11T06:50:59.506Z,98663.69
2022-10-11T06:53:31.120Z,98660.72
2022-10-11T06:56:06.533Z,98666.28
2022-10-11T06:58:37.202Z,98663.03
2022-10-11T07:01:10.782Z,98667.50
2022-10-11T07:03:41.016Z,98682.31
2022-10-11T07:06:17.078Z,98671.75
2022-10-11T07:08:47.273Z,98665.19
2022-10-11T07:11:21.092Z,98681.78
2022-10-11T07:13:54.033Z,98677.41
2022-10-11T07:16:25.378Z,98689.34
2022-10-11T07:19:00.553Z,98690.41
2022-10-11T07:21:36.640Z,98683.47
2022-10-11T07:24:07.903Z,98682.75
2022-10-11T07:26:39.106Z,98694.72
2022-10-11T07:29:11.051Z,98691.84
2022-10-11T07:31:44.193Z,98697.53
2022-10-11T07:34:14.587Z,98705.13
2022-10-11T07:36:47.453Z,98701.44
2022-10-11T07:39:18.261Z,98700.91
2022-10-11T07:41:48.552Z,98703.69
2022-10-11T07:44:18.730Z,98703.63
2022-10-11T07:46:48.930Z,98702.31
2022-10-11T07:49:19.105Z,98709.78
2022-10-11T07:51:52.245Z,98713.25
2022-10-11T07:54:22.445Z,98710.72
2022-10-11T07:56:52.789Z,98709.91
2022-10-11T07:59:23.193Z,98705.50
2022-10-11T08:01:53.794Z,98717.03
2022-10-11T08:04:24.199Z,98720.72
2022-10-11T08:06:57.092Z,98711.50
2022-10-11T08:09:27.261Z,98717.63
2022-10-11T08:11:57.372Z,98715.56
2022-10-11T08:14:27.584Z,98716.16
2022-10-11T08:16:57.755Z,98717.25
2022-10-11T08:19:27.943Z,98719.00
2022-10-11T08:22:00.853Z,98715.81
2022-10-11T08:24:35.885Z,98706.53
2022-10-11T08:27:11.374Z,98713.56
2022-10-11T08:29:41.601Z,98713.56
2022-10-11T08:32:12.616Z,98724.19
2022-10-11T08:34:43.436Z,98718.03
2022-10-11T08:37:17.083Z,98720.88
2022-10-11T08:39:47.342Z,98723.63
2022-10-11T08:42:29.605Z,98725.81
2022-10-11T08:45:11.011Z,98718.06
2022-10-11T08:47:46.200Z,98730.66
2022-10-11T08:50:22.472Z,98728.91
2022-10-11T08:52:59.531Z,98732.59
2022-10-11T08:55:38.088Z,98728.25
2022-10-11T08:58:08.608Z,98723.28
2022-10-11T09:00:41.037Z,98721.63
2022-10-11T09:03:26.771Z,98715.56
2022-10-11T09:06:14.999Z,98723.56
2022-10-11T09:09:06.596Z,98724.44
2022-10-11T09:11:54.248Z,98721.56
2022-10-11T09:14:52.311Z,98719.75
2022-10-11T09:17:40.435Z,98721.72
2022-10-11T09:20:38.529Z,98720.28
2022-10-11T09:23:24.578Z,98720.59
2022-10-11T09:26:03.880Z,98724.06
2022-10-11T09:28:51.062Z,98728.09
2022-10-11T09:31:21.420Z,98733.19
2022-10-11T09:33:54.218Z,98731.44
2022-10-11T09:36:33.467Z,98727.41
2022-10-11T09:39:13.926Z,98736.31
2022-10-11T09:41:56.734Z,98723.88
2022-10-11T09:44:29.639Z,98727.88
2022-10-11T09:47:01.172Z,98720.44
2022-10-11T09:49:39.225Z,98727.31
2022-10-11T09:52:17.249Z,98718.38
2022-10-11T09:54:49.576Z,98726.81
2022-10-11T09:57:29.068Z,98730.66
2022-10-11T10:00:12.958Z,98733.88
2022-10-11T10:02:47.005Z,98737.94
2022-10-11T10:05:22.071Z,98732.75
2022-10-11T10:08:25.460Z,98737.31
2022-10-11T10:11:04.447Z,98724.78
2022-10-11T10:13:46.892Z,98725.59
2022-10-11T10:16:27.536Z,98726.41
2022-10-11T10:19:00.145Z,98730.03
2022-10-11T10:21:34.243Z,98730.19
2022-10-11T10:24:09.166Z,98734.47
2022-10-11T10:26:40.118Z,98746.63
2022-10-11T10:29:21.269Z,98750.59
2022-10-11T10:32:14.914Z,98745.22
2022-10-11T10:35:02.650Z,98739.16
2022-10-11T10:37:38.035Z,98739.38
2022-10-11T10:40:13.285Z,98732.31
2022-10-11T10:42:43.618Z,98744.59
2022-10-11T10:45:22.144Z,98738.81
2022-10-11T10:48:14.569Z,98751.69
2022-10-11T10:50:53.293Z,98745.00
2022-10-11T10:53:30.929Z,98744.13
2022-10-11T10:56:09.670Z,98745.69
2022-10-11T10:58:59.847Z,98740.16
2022-10-11T11:01:35.955Z,98730.22
2022-10-11T11:04:15.677Z,98726.38
2022-10-11T11:06:52.864Z,98729.38
2022-10-11T11:09:41.631Z,98724.50
2022-10-11T11:12:27.989Z,98728.78
2022-10-11T11:15:07.266Z,98730.34
2022-10-11T11:17:57.768Z,98730.88
2022-10-11T11:20:39.092Z,98730.53
2022-10-11T11:23:18.043Z,98734.78
2022-10-11T11:25:58.492Z,98724.00
2022-10-11T11:28:40.090Z,98728.75
2022-10-11T11:31:25.441Z,98719.19
2022-10-11T11:34:09.327Z,98723.75
2022-10-11T11:36:46.827Z,98724.59
2022-10-11T11:39:23.799Z,98723.28
2022-10-11T11:41:59.397Z,98713.16
2022-10-11T11:44:34.932Z,98723.75
2022-10-11T11:47:10.855Z,98707.94
2022-10-11T11:49:49.360Z,98709.16
2022-10-11T11:52:28.202Z,98715.41
2022-10-11T11:55:07.616Z,98709.97
2022-10-11T11:57:55.236Z,98710.47
2022-10-11T12:00:28.506Z,98710.69
2022-10-11T12:03:01.965Z,98702.38
2022-10-11T12:05:37.538Z,98696.25
2022-10-11T12:08:11.065Z,98699.09
2022-10-11T12:10:57.715Z,98691.69
2022-10-11T12:13:32.575Z,98689.50
2022-10-11T12:16:14.105Z,98696.25
2022-10-11T12:18:54.501Z,98684.72
2022-10-11T12:21:33.545Z,98673.78
2022-10-11T12:24:14.170Z,98674.47
2022-10-11T12:26:47.466Z,98679.59
2022-10-11T12:29:50.623Z,98675.50
2022-10-11T12:32:52.085Z,98668.50
2022-10-11T12:36:07.387Z,98673.31
2022-10-11T12:38:42.535Z,98672.69
2022-10-11T12:41:41.817Z,98671.91
2022-10-11T12:44:24.627Z,98670.56
2022-10-11T12:47:35.630Z,98666.03
2022-10-11T12:50:19.101Z,98668.72
2022-10-11T12:53:03.733Z,98667.31
2022-10-11T12:55:49.975Z,98665.25
2022-10-11T12:58:38.303Z,98664.19
2022-10-11T13:01:22.811Z,98666.66
2022-10-11T13:04:02.732Z,98666.16
2022-10-11T13:06:38.294Z,98664.50
2022-10-11T13:09:21.658Z,98665.47
2022-10-11T13:11:59.181Z,98671.25
2022-10-11T13:14:33.805Z,98665.94
2022-10-11T13:17:16.009Z,98659.19
2022-10-11T13:19:48.536Z,98667.34
2022-10-11T13:22:26.324Z,98663.88
2022-10-11T13:24:59.707Z,98661.91
2022-10-11T13:27:32.829Z,98662.13
2022-10-11T13:30:06.621Z,98664.56
2022-10-11T13:32:39.457Z,98656.47
2022-10-11T13:35:23.944Z,98655.03
2022-10-11T13:37:55.443Z,98659.06
2022-10-11T13:40:27.005Z,98666.50
2022-10-11T13:43:00.571Z,98663.53
2022-10-11T13:45:36.015Z,98664.97
2022-10-11T13:48:06.589Z,98669.13
2022-10-11T13:50:37.204Z,98670.03
2022-10-11T13:53:26.128Z,98661.88
2022-10-11T13:55:59.465Z,98659.94
2022-10-11T13:58:38.786Z,98666.00
2022-10-11T14:01:21.416Z,98665.66
2022-10-11T14:03:59.602Z,98677.38
2022-10-11T14:06:44.942Z,98668.22
2022-10-11T14:09:23.907Z,98672.88
2022-10-11T14:11:54.324Z,98669.03
2022-10-11T14:14:43.441Z,98667.59
2022-10-11T14:17:19.296Z,98668.03
2022-10-11T14:20:21.439Z,98665.53
2022-10-11T14:22:54.637Z,98665.22
2022-10-11T14:25:25.239Z,98658.50
2022-10-11T14:27:55.593Z,98662.88
2022-10-11T14:30:31.629Z,98665.13
2022-10-11T14:33:04.741Z,98660.22
2022-10-11T14:35:40.373Z,98659.78
2022-10-11T14:38:12.870Z,98664.19
2022-10-11T14:40:43.108Z,98662.94
2022-10-11T14:43:13.331Z,98668.09
2022-10-11T14:45:43.518Z,98672.28
2022-10-11T14:48:13.687Z,98673.69
2022-10-11T14:50:51.544Z,98670.44
2022-10-11T14:53:22.454Z,98670.53
2022-10-11T14:55:53.366Z,98685.94
2022-10-11T14:58:23.624Z,98677.56
2022-10-11T15:00:53.788Z,98670.63
2022-10-11T15:03:24.047Z,98680.38
2022-10-11T15:05:58.205Z,98665.56
2022-10-11T15:08:28.350Z,98675.50
2022-10-11T15:10:58.547Z,98674.47
2022-10-11T15:13:28.854Z,98675.50
2022-10-11T15:15:59.358Z,98683.63
2022-10-11T15:18:29.527Z,98681.88
2022-10-11T15:21:02.330Z,98681.88
2022-10-11T15:23:32.784Z,98688.78
2022-10-11T15:26:03.086Z,98679.53
2022-10-11T15:28:36.040Z,98680.47
2022-10-11T15:31:06.331Z,98685.72
2022-10-11T15:33:36.574Z,98682.34
2022-10-11T15:36:13.368Z,98694.19
2022-10-11T15:38:44.203Z,98689.16
2022-10-11T15:41:15.807Z,98686.97
2022-10-11T15:43:49.597Z,98680.78
2022-10-11T15:46:22.795Z,98692.81
2022-10-11T15:48:54.384Z,98681.44
2022-10-11T15:51:27.643Z,98695.03
2022-10-11T15:53:57.951Z,98686.94
2022-10-11T15:56:32.967Z,98686.47
2022-10-11T15:59:04.149Z,98699.28
2022-10-11T16:01:34.373Z,98697.03
2022-10-11T16:04:04.600Z,98700.69
2022-10-11T16:06:37.420Z,98697.41
2022-10-11T16:09:07.702Z,98701.00
2022-10-11T16:11:37.936Z,98698.25
2022-10-11T16:14:08.133Z,98694.72
2022-10-11T16:16:38.364Z,98702.13
2022-10-11T16:19:08.553Z,98704.16
2022-10-11T16:21:41.422Z,98702.44
2022-10-11T16:24:11.845Z,98706.84
2022-10-11T16:26:42.152Z,98712.19
2022-10-11T16:29:12.424Z,98708.44
2022-10-11T16:31:42.596Z,98711.13
2022-10-11T16:34:12.885Z,98716.47
2022-10-11T16:36:45.999Z,98714.72
2022-10-11T16:39:20.146Z,98710.47
2022-10-11T16:41:50.756Z,98705.13
2022-10-11T16:44:25.310Z,98713.16
2022-10-11T16:46:55.574Z,98711.81
2022-10-11T16:49:28.990Z,98717.16
2022-10-11T16:52:04.097Z,98715.78
2022-10-11T16:54:34.910Z,98713.06
2022-10-11T16:57:05.082Z,98718.69
2022-10-11T16:59:35.402Z,98715.00
2022-10-11T17:02:06.204Z,98714.53
2022-10-11T17:04:36.679Z,98720.47
2022-10-11T17:07:12.543Z,98715.09
2022-10-11T17:09:44.279Z,98713.38
2022-10-11T17:12:16.599Z,98708.00
2022-10-11T17:14:47.074Z,98712.63
2022-10-11T17:17:17.699Z,98718.97
2022-10-11T17:19:48.299Z,98717.88
2022-10-11T17:22:22.744Z,98721.59
2022-10-11T17:24:52.914Z,98721.59
2022-10-11T17:27:23.335Z,98725.00
2022-10-11T17:29:53.543Z,98719.75
2022-10-11T17:32:23.682Z,98728.72
2022-10-11T17:34:53.980Z,98725.16
2022-10-11T17:37:26.826Z,98731.78
2022-10-11T17:39:57.916Z,98733.63
2022-10-11T17:42:28.125Z,98736.84
2022-10-11T17:44:58.324Z,98731.13
2022-10-11T17:47:28.522Z,98735.91
2022-10-11T17:49:58.614Z,98734.50
2022-10-11T17:52:31.420Z,98725.72
2022-10-11T17:55:01.557Z,98730.63
2022-10-11T17:57:31.761Z,98733.09
2022-10-11T18:00:02.152Z,98732.78
2022-10-11T18:02:34.907Z,98727.06
2022-10-11T18:05:05.330Z,98725.81
2022-10-11T18:07:38.188Z,98724.84
2022-10-11T18:10:09.832Z,98731.34
2022-10-11T18:12:40.508Z,98733.34
2022-10-11T18:15:13.044Z,98731.47
2022-10-11T18:17:43.160Z,98725.13
2022-10-11T18:20:14.796Z,98727.75
2022-10-11T18:22:47.516Z,98727.28
2022-10-11T18:25:17.887Z,98723.91
2022-10-11T18:27:48.159Z,98723.28
2022-10-11T18:30:18.541Z,98724.16
2022-10-11T18:32:48.764Z,98730.00
2022-10-11T18:35:19.178Z,98727.31
2022-10-11T18:38:00.027Z,98725.72
2022-10-11T18:40:31.102Z,98720.06
2022-10-11T18:43:01.292Z,98726.94
2022-10-11T18:45:31.430Z,98720.78
2022-10-11T18:48:01.722Z,98727.22
2022-10-11T18:50:35.052Z,98713.16
2022-10-11T18:53:07.792Z,98722.06
2022-10-11T18:55:37.873Z,98718.84
2022-10-11T18:58:07.973Z,98722.06
2022-10-11T19:00:41.181Z,98724.63
2022-10-11T19:03:11.719Z,98724.63
2022-10-11T19:05:42.182Z,98719.22
2022-10-11T19:08:15.024Z,98726.16
2022-10-11T19:10:45.123Z,98722.72
2022-10-11T19:13:15.241Z,98725.63
2022-10-11T19:15:45.401Z,98722.22
2022-10-11T19:18:20.257Z,98722.22
2022-10-11T19:20:50.593Z,98717.56
2022-10-11T19:23:23.781Z,98715.72
2022-10-11T19:25:53.870Z,98716.59
2022-10-11T19:28:24.054Z,98719.03
2022-10-11T19:30:54.234Z,98715.50
2022-10-11T19:33:24.372Z,98714.41
2022-10-11T19:35:57.733Z,98708.53
2022-10-11T19:38:30.446Z,98722.09
2022-10-11T19:41:00.607Z,98715.09
2022-10-11T19:43:31.179Z,98719.22
2022-10-11T19:46:05.741Z,98723.34
2022-10-11T19:48:39.283Z,98718.59
2022-10-11T19:51:12.712Z,98728.94
2022-10-11T19:53:46.501Z,98730.16
2022-10-11T19:56:19.667Z,98727.38
2022-10-11T19:58:49.755Z,98723.97
2022-10-11T20:01:23.119Z,98729.50
2022-10-11T20:03:55.878Z,98729.50
2022-10-11T20:06:28.349Z,98720.09
2022-10-11T20:09:27.445Z,98723.63
2022-10-11T20:11:51.740Z,98723.00
2022-10-11T20:14:21.930Z,98728.19
2022-10-11T20:16:53.350Z,98727.41
2022-10-11T20:19:30.543Z,98732.22
2022-10-11T20:22:02.607Z,98728.19
2022-10-11T20:24:35.663Z,98726.66
2022-10-11T20:27:07.179Z,98728.19
2022-10-11T20:29:37.282Z,98725.69
2022-10-11T20:32:07.512Z,98728.75
2022-10-11T20:34:39.603Z,98721.38
2022-10-11T20:37:09.855Z,98722.59
2022-10-11T20:39:42.651Z,98717.50
2022-10-11T20:42:12.824Z,98719.47
2022-10-11T20:44:43.846Z,98725.47
2022-10-11T20:47:13.990Z,98724.03
2022-10-11T20:49:44.089Z,98729.69
2022-10-11T20:52:14.263Z,98731.34
2022-10-11T20:54:47.030Z,98727.59
2022-10-11T20:57:17.151Z,98730.06
2022-10-11T20:59:47.843Z,98733.13
2022-10-11T21:02:19.051Z,98727.84
2022-10-11T21:04:49.320Z,98730.28
2022-10-11T21:07:19.435Z,98718.00
2022-10-11T21:09:52.195Z,98736.81
2022-10-11T21:12:22.230Z,98726.66
2022-10-11T21:14:52.378Z,98726.75
2022-10-11T21:17:22.511Z,98722.91
2022-10-11T21:19:52.626Z,98725.97
2022-10-11T21:22:22.934Z,98729.19
2022-10-11T21:24:55.692Z,98722.22
2022-10-11T21:27:25.848Z,98722.69
2022-10-11T21:29:56.241Z,98721.22
2022-10-11T21:32:26.983Z,98726.53
2022-10-11T21:34:57.133Z,98726.72
2022-10-11T21:37:27.348Z,98731.81
2022-10-11T21:40:00.149Z,98737.34
2022-10-11T21:42:30.333Z,98737.91
2022-10-11T21:45:00.803Z,98745.75
2022-10-11T21:47:31.563Z,98735.72
2022-10-11T21:50:01.920Z,98738.72
2022-10-11T21:52:32.234Z,98736.03
2022-10-11T21:55:05.163Z,98747.19
2022-10-11T21:57:35.345Z,98746.84
2022-10-11T22:00:05.768Z,98741.78
2022-10-11T22:02:43.622Z,98737.13
2022-10-11T22:05:13.855Z,98738.81
2022-10-11T22:07:43.994Z,98738.47
2022-10-11T22:10:16.691Z,98734.56
2022-10-11T22:12:49.648Z,98734.69
2022-10-11T22:15:20.072Z,98738.44
2022-10-11T22:17:50.206Z,98735.88
2022-10-11T22:20:20.731Z,98737.66
2022-10-11T22:22:50.976Z,98730.25
2022-10-11T22:25:24.012Z,98731.22
2022-10-11T22:27:54.140Z,98735.13
2022-10-11T22:30:24.182Z,98731.09
2022-10-11T22:32:54.642Z,98733.44
2022-10-11T22:35:24.777Z,98724.06
2022-10-11T22:37:55.652Z,98737.97
2022-10-11T22:40:31.422Z,98727.56
2022-10-11T22:43:01.558Z,98730.25
2022-10-11T22:45:34.682Z,98730.56
2022-10-11T22:48:04.918Z,98736.09
2022-10-11T22:50:35.069Z,98733.00
2022-10-11T22:53:05.194Z,98739.31
2022-10-11T22:55:38.733Z,98736.78
2022-10-11T22:58:09.131Z,98727.59
2022-10-11T23:00:39.771Z,98731.56
2022-10-11T23:03:10.173Z,98735.66
2022-10-11T23:05:41.572Z,98733.25
2022-10-11T23:08:12.292Z,98731.56
2022-10-11T23:10:45.178Z,98733.47
2022-10-11T23:13:15.260Z,98733.13
2022-10-11T23:15:45.486Z,98730.34
2022-10-11T23:18:18.266Z,98725.59
2022-10-11T23:20:51.098Z,98717.75
2022-10-11T23:23:21.394Z,98717.75
2022-10-11T23:26:06.764Z,98723.03
2022-10-11T23:28:37.295Z,98711.75
2022-10-11T23:31:12.587Z,98715.50
2022-10-11T23:33:42.765Z,98723.91
2022-10-11T23:36:18.041Z,98722.03
2022-10-11T23:38:54.307Z,98728.00
2022-10-11T23:41:29.912Z,98723.03
2022-10-11T23:44:00.953Z,98728.63
2022-10-11T23:46:31.030Z,98719.00
2022-10-11T23:49:01.317Z,98727.72
2022-10-11T23:51:31.580Z,98725.81
2022-10-11T23:54:03.842Z,98727.16
2022-10-11T23:56:36.837Z,98736.88
2022-10-11T23:59:07.029Z,98733.38
